Terminal Aerodrome Forecast
Issued by NWS

Home | Current Version | Previous Version | Graphics & Text | Print | Product List | Glossary On
Versions: 1 2 3 4 5 6 7 8 9 10 11 12 13 14
000
FTUS43 KGRB 302102 AAA
TAFAUW
TAF AMD
KAUW 302102Z 3021/0118 22005KT P6SM VCSH SCT008 OVC020
      TEMPO 3021/3024 5SM -RASN BR BKN009
     FM010000 27003KT 5SM -RASN BR OVC010
     FM010300 30004KT 5SM -SN BR OVC008
     FM011100 30007KT 5SM BR VCSH OVC006
     FM011500 30009KT P6SM BKN012 OVC050=

USA.gov is the U.S. government's official web portal to all federal, state and local government web resources and services.